Colby, KS (67701)

8:19 PM CST on December 04, 2016 (GMT -0600)
630 Woofter Ave | | Change Station

Elev 3186 ft 39.40 °N, 101.06 °W | Updated 10 seconds ago

Clear
Clear
36.6 °F
Feels Like 37 °F
N
1.0
Wind Variable Wind from South
Gusts 4.0 mph

Today
High -- | Low -- °F
--% Chance of Precip.
Yesterday
High -- | Low -- °F
Precip. -- in
Pressure 29.87 in
Visibility 10.0 miles
Clouds Clear
Windchill 37 °F
Dew Point 14 °F
Humidity 39%
Rainfall 0.00 in
Snow Depth Not available.
7:48 AM 5:20 PM
Waxing Crescent, 27% visible
METAR KCBK 050155Z AUTO 20011KT 10SM CLR 03/M08 A2987 RMK AO2
Pressure 29.87 in
Visibility 10.0 miles
Clouds Clear
Windchill 37 °F
Dew Point 14 °F
Humidity 39%
Rainfall 0.00 in
Snow Depth Not available.
7:48 AM 5:20 PM
Waxing Crescent, 27% visible
METAR KCBK 050155Z AUTO 20011KT 10SM CLR 03/M08 A2987 RMK AO2

10-Day Weather Forecast

Almanac

Astronomy

Dec. 04, 2016 Rise Set
Actual Time
Civil Twilight
Nautical Twilight
Astronomical Twilight
Moon
Length of Visible Light
Length of Day
Tomorrow will be .
, % of the Moon is Illuminated

Today's Extremes

State Highs State Lows

Community

WunderPhotos

Upload Photos

1,955,744 photos uploaded!

WunderBlog® & News

Nearby

Air Quality

  Air Quality AQ Index Pollutant
Not available.

Snow Depth

Station Depth Elevation

Earthquake Activity

City Distance Mag. Time & Date
Minimum magnitude displayed is 2.5.

Coastal Water Temperatures

Place Temperature

Stations

Nearby Weather Stations

Station Location Temp. Windchill Dew Point Humidity Wind Precip. Elev Updated Type
                   

Watches & Warnings

There are currently no watches in effect.